Time;durP1;ratioP1;P1;durP2;ratioP2;P2;SDS_P1;SDS_P2;PMS_P1;PMS_P2;Temp;Humidity;BMP_temperature;BMP_pressure;BME280_temperature;BME280_humidity;BME280_pressure;Samples;Min_cycle;Max_cycle;Signal;HPM_P1;HPM_P2
2023/04/06 00:01:06;;;;;;;;;;;5.10;99.90;;;;;;5089392;28;19926;-74
2023/04/06 00:03:32;;;;;;;;;;;5.00;99.90;;;;;;5093132;28;19919;-74
2023/04/06 00:05:57;;;;;;;;;;;4.90;99.90;;;;;;5111278;28;19946;-74
2023/04/06 00:08:23;;;;;;;;;;;4.90;99.90;;;;;;5111495;28;19972;-74
2023/04/06 00:10:49;;;;;;;;;;;4.80;99.90;;;;;;5111065;28;19919;-74
2023/04/06 00:13:15;;;;;;;;;;;4.80;99.90;;;;;;5111394;28;20011;-74
2023/04/06 00:15:40;;;;;;;;;;;4.80;99.90;;;;;;5110421;28;20010;-74
2023/04/06 00:18:06;;;;;;;;;;;4.70;99.90;;;;;;5111117;28;19956;-74
2023/04/06 00:20:31;;;;;;;;;;;4.70;99.90;;;;;;5110932;28;19959;-74
2023/04/06 00:22:57;;;;;;;;;;;4.60;99.90;;;;;;5111231;28;20368;-74
2023/04/06 00:25:22;;;;;;;;;;;4.60;99.90;;;;;;5110587;28;20003;-74
2023/04/06 00:27:48;;;;;;;;;;;4.60;99.90;;;;;;5110975;28;19963;-74
2023/04/06 00:30:13;;;;;;;;;;;4.60;99.90;;;;;;5092522;28;19919;-75
2023/04/06 00:32:39;;;;;;;;;;;4.60;99.90;;;;;;5110733;28;19923;-74
2023/04/06 00:35:05;;;;;;;;;;;4.60;99.90;;;;;;5111066;28;20427;-75
2023/04/06 00:37:31;;;;;;;;;;;4.60;99.90;;;;;;5092853;28;19923;-75
2023/04/06 00:39:56;;;;;;;;;;;4.60;99.90;;;;;;5110153;28;19928;-74
2023/04/06 00:42:25;;;;;;;;;;;4.50;99.90;;;;;;5092560;28;19925;-74
2023/04/06 00:45:00;;;;;;;;;;;4.50;99.90;;;;;;5110938;28;19923;-74
2023/04/06 00:47:26;;;;;;;;;;;4.50;99.90;;;;;;5110528;28;19924;-74
2023/04/06 00:49:52;;;;;;;;;;;4.40;99.90;;;;;;5110822;28;19926;-74
2023/04/06 00:52:18;;;;;;;;;;;4.40;99.90;;;;;;5110314;28;20396;-74
2023/04/06 00:54:44;;;;;;;;;;;4.40;99.90;;;;;;5092382;28;19927;-74
2023/04/06 00:57:10;;;;;;;;;;;4.40;99.90;;;;;;5126498;27;19927;-74
2023/04/06 00:59:36;;;;;;;;;;;4.30;99.90;;;;;;5106158;28;19994;-75
2023/04/06 01:02:02;;;;;;;;;;;4.30;99.90;;;;;;5110637;28;20369;-74
2023/04/06 01:04:27;;;;;;;;;;;4.30;99.90;;;;;;5092149;28;19928;-74
2023/04/06 01:06:53;;;;;;;;;;;4.30;99.90;;;;;;5110394;28;19919;-75
2023/04/06 01:09:18;;;;;;;;;;;4.30;99.90;;;;;;5091418;28;19980;-75
2023/04/06 01:11:44;;;;;;;;;;;4.20;99.90;;;;;;5091983;28;20068;-74
2023/04/06 01:14:09;;;;;;;;;;;4.20;99.90;;;;;;5109822;28;19927;-75
2023/04/06 01:16:35;;;;;;;;;;;4.20;99.90;;;;;;5126068;27;20292;-75
2023/04/06 01:19:01;;;;;;;;;;;4.20;99.90;;;;;;5074893;28;19920;-74
2023/04/06 01:21:27;;;;;;;;;;;4.20;99.90;;;;;;5092111;28;19998;-74
2023/04/06 01:23:52;;;;;;;;;;;4.20;99.90;;;;;;5092116;28;20350;-74
2023/04/06 01:26:18;;;;;;;;;;;4.20;99.90;;;;;;5091560;28;19920;-75
2023/04/06 01:28:44;;;;;;;;;;;4.20;99.90;;;;;;5091625;28;19971;-75
2023/04/06 01:31:10;;;;;;;;;;;4.10;99.90;;;;;;5087453;28;19919;-74
2023/04/06 01:33:35;;;;;;;;;;;4.10;99.90;;;;;;5086681;28;20399;-74
2023/04/06 01:36:01;;;;;;;;;;;4.10;99.90;;;;;;5110177;28;19928;-74
2023/04/06 01:38:26;;;;;;;;;;;4.00;99.90;;;;;;5109207;28;20442;-75
2023/04/06 01:40:53;;;;;;;;;;;4.10;99.90;;;;;;5110067;28;19927;-74
2023/04/06 01:43:18;;;;;;;;;;;4.10;99.90;;;;;;5113574;28;19927;-74
2023/04/06 01:45:44;;;;;;;;;;;4.10;99.90;;;;;;5114518;28;19976;-75
2023/04/06 01:48:10;;;;;;;;;;;4.00;99.90;;;;;;5114566;28;19919;-74
2023/04/06 01:50:36;;;;;;;;;;;4.00;99.90;;;;;;5095451;28;20392;-75
2023/04/06 01:53:01;;;;;;;;;;;4.00;99.90;;;;;;5113839;28;19973;-74
2023/04/06 01:55:27;;;;;;;;;;;3.90;99.90;;;;;;5113656;28;20006;-74
2023/04/06 01:57:52;;;;;;;;;;;3.90;99.90;;;;;;5114094;28;19927;-74
2023/04/06 02:00:18;;;;;;;;;;;3.90;99.90;;;;;;5095547;28;20038;-75
2023/04/06 02:02:44;;;;;;;;;;;3.80;99.90;;;;;;5113682;28;20013;-74
2023/04/06 02:05:09;;;;;;;;;;;3.90;99.90;;;;;;5113957;28;19919;-75
2023/04/06 02:07:35;;;;;;;;;;;3.90;99.90;;;;;;5113444;28;19963;-74
2023/04/06 02:10:00;;;;;;;;;;;3.80;99.90;;;;;;5113792;28;19999;-74
2023/04/06 02:12:26;;;;;;;;;;;3.80;99.90;;;;;;5113891;28;19919;-75
2023/04/06 02:14:51;;;;;;;;;;;3.70;99.90;;;;;;5095088;28;19924;-75
2023/04/06 02:17:17;;;;;;;;;;;3.70;99.90;;;;;;5113673;28;20304;-74
2023/04/06 02:19:43;;;;;;;;;;;3.70;99.90;;;;;;5113473;28;19919;-74
2023/04/06 02:22:09;;;;;;;;;;;3.70;99.90;;;;;;5113376;28;19927;-75
2023/04/06 02:24:35;;;;;;;;;;;3.60;99.90;;;;;;5113082;28;20006;-74
2023/04/06 02:27:00;;;;;;;;;;;3.60;99.90;;;;;;5113197;28;19920;-75
2023/04/06 02:29:26;;;;;;;;;;;3.50;99.90;;;;;;5113434;28;20524;-74
2023/04/06 02:31:52;;;;;;;;;;;3.50;99.90;;;;;;5095170;28;19923;-74
2023/04/06 02:34:17;;;;;;;;;;;3.50;99.90;;;;;;5113251;28;19919;-75
2023/04/06 02:36:46;;;;;;;;;;;3.40;99.90;;;;;;5113288;28;20513;-74
2023/04/06 02:39:12;;;;;;;;;;;3.40;99.90;;;;;;5112969;28;19920;-74
2023/04/06 02:41:38;;;;;;;;;;;3.40;99.90;;;;;;5077951;28;19923;-75
2023/04/06 02:44:04;;;;;;;;;;;3.30;99.90;;;;;;5128825;27;19923;-75
2023/04/06 02:46:29;;;;;;;;;;;3.30;99.90;;;;;;5112804;28;20361;-74
2023/04/06 02:48:56;;;;;;;;;;;3.30;99.90;;;;;;5113469;28;19980;-74
2023/04/06 02:51:21;;;;;;;;;;;3.30;99.90;;;;;;5077794;28;19999;-75
2023/04/06 02:53:47;;;;;;;;;;;3.30;99.90;;;;;;5094252;28;19998;-74
2023/04/06 02:56:12;;;;;;;;;;;3.20;99.90;;;;;;5111399;28;20399;-74
2023/04/06 02:58:38;;;;;;;;;;;3.20;99.90;;;;;;5111920;28;19919;-74
2023/04/06 03:01:03;;;;;;;;;;;3.20;99.90;;;;;;5111716;28;19972;-74
2023/04/06 03:03:29;;;;;;;;;;;3.20;99.90;;;;;;5111852;28;19919;-75
2023/04/06 03:05:58;;;;;;;;;;;3.20;99.90;;;;;;5093025;28;19919;-74
2023/04/06 03:08:24;;;;;;;;;;;3.20;99.90;;;;;;5111897;28;20606;-75
2023/04/06 03:10:49;;;;;;;;;;;3.20;99.90;;;;;;5111421;28;19949;-75
2023/04/06 03:13:15;;;;;;;;;;;3.20;99.90;;;;;;5093542;28;21448;-74
2023/04/06 03:15:40;;;;;;;;;;;3.20;99.90;;;;;;5093906;28;19920;-74
2023/04/06 03:18:06;;;;;;;;;;;3.20;99.90;;;;;;5093647;28;20295;-75
2023/04/06 03:20:32;;;;;;;;;;;3.20;99.90;;;;;;5092996;28;19920;-74
2023/04/06 03:22:57;;;;;;;;;;;3.10;99.90;;;;;;5111578;28;20442;-75
2023/04/06 03:25:23;;;;;;;;;;;3.10;99.90;;;;;;5127255;27;19920;-75
2023/04/06 03:27:48;;;;;;;;;;;3.10;99.90;;;;;;5110868;28;19924;-74
2023/04/06 03:30:15;;;;;;;;;;;3.10;99.90;;;;;;5110959;28;19924;-75
2023/04/06 03:32:41;;;;;;;;;;;3.10;99.90;;;;;;5093075;28;20023;-75
2023/04/06 03:35:07;;;;;;;;;;;3.00;99.90;;;;;;5092783;28;20386;-75
2023/04/06 03:37:32;;;;;;;;;;;3.00;99.90;;;;;;5092862;28;19924;-75
2023/04/06 03:39:58;;;;;;;;;;;3.00;99.90;;;;;;5092493;28;19983;-74
2023/04/06 03:42:23;;;;;;;;;;;3.00;99.90;;;;;;5092854;28;19924;-74
2023/04/06 03:44:49;;;;;;;;;;;3.00;99.90;;;;;;5109989;28;19923;-74
2023/04/06 03:47:14;;;;;;;;;;;3.00;99.90;;;;;;5092478;28;19920;-74
2023/04/06 03:49:40;;;;;;;;;;;2.90;99.90;;;;;;5092747;28;19926;-74
2023/04/06 03:52:06;;;;;;;;;;;2.90;99.90;;;;;;5094222;28;19974;-75
2023/04/06 03:54:31;;;;;;;;;;;2.80;99.90;;;;;;5076239;28;20516;-74
2023/04/06 03:56:57;;;;;;;;;;;2.80;99.90;;;;;;5111813;28;19930;-74
2023/04/06 03:59:22;;;;;;;;;;;2.80;99.90;;;;;;5092868;28;19919;-75
2023/04/06 04:01:48;;;;;;;;;;;2.70;99.90;;;;;;5093271;28;19920;-74
2023/04/06 04:04:14;;;;;;;;;;;2.70;99.90;;;;;;5092788;28;20004;-75
2023/04/06 04:06:39;;;;;;;;;;;2.70;99.90;;;;;;5111523;28;19920;-74
2023/04/06 04:09:05;;;;;;;;;;;2.70;99.90;;;;;;5092925;28;19926;-75
2023/04/06 04:11:30;;;;;;;;;;;2.70;99.90;;;;;;5111284;28;19919;-75
2023/04/06 04:13:56;;;;;;;;;;;2.60;99.90;;;;;;5093025;28;19975;-75
2023/04/06 04:16:21;;;;;;;;;;;2.70;99.90;;;;;;5093065;28;19919;-75
2023/04/06 04:18:48;;;;;;;;;;;2.60;99.90;;;;;;5092838;28;19965;-75
2023/04/06 04:21:14;;;;;;;;;;;2.60;99.90;;;;;;5092478;28;19963;-75
2023/04/06 04:23:39;;;;;;;;;;;2.50;99.90;;;;;;5092586;28;20019;-75
2023/04/06 04:26:05;;;;;;;;;;;2.50;99.90;;;;;;5111407;28;19920;-75
2023/04/06 04:28:31;;;;;;;;;;;2.50;99.90;;;;;;5092347;28;19923;-75
2023/04/06 04:30:56;;;;;;;;;;;2.50;99.90;;;;;;5092480;28;19923;-74
2023/04/06 04:33:22;;;;;;;;;;;2.50;99.90;;;;;;5110909;28;19924;-75
2023/04/06 04:35:48;;;;;;;;;;;2.40;99.90;;;;;;5110886;28;20293;-75
2023/04/06 04:38:13;;;;;;;;;;;2.40;99.90;;;;;;5092374;28;19920;-75
2023/04/06 04:40:39;;;;;;;;;;;2.40;99.90;;;;;;5092516;28;19959;-75
2023/04/06 04:43:05;;;;;;;;;;;2.40;99.90;;;;;;5110457;28;20060;-75
2023/04/06 04:45:30;;;;;;;;;;;2.40;99.90;;;;;;5092586;28;19969;-75
2023/04/06 04:47:56;;;;;;;;;;;2.40;99.90;;;;;;5092002;28;19934;-75
2023/04/06 04:50:21;;;;;;;;;;;2.40;99.90;;;;;;5092563;28;19920;-75
2023/04/06 04:52:47;;;;;;;;;;;2.40;99.90;;;;;;5092025;28;19919;-75
2023/04/06 04:55:12;;;;;;;;;;;2.40;99.90;;;;;;5092005;28;19927;-75
2023/04/06 04:57:38;;;;;;;;;;;2.40;99.90;;;;;;5126195;27;20468;-75
2023/04/06 05:00:04;;;;;;;;;;;2.40;99.90;;;;;;5110281;28;19919;-75
2023/04/06 05:02:29;;;;;;;;;;;2.40;99.90;;;;;;5092363;28;20335;-75
2023/04/06 05:04:55;;;;;;;;;;;2.40;99.90;;;;;;5126687;27;19920;-75
2023/04/06 05:07:20;;;;;;;;;;;2.40;99.90;;;;;;5110368;28;19920;-75
2023/04/06 05:09:46;;;;;;;;;;;2.50;99.90;;;;;;5099335;28;19920;-74
2023/04/06 05:12:12;;;;;;;;;;;2.40;99.90;;;;;;5092240;28;20256;-75
2023/04/06 05:14:37;;;;;;;;;;;2.50;99.90;;;;;;5126000;27;19924;-74
2023/04/06 05:17:03;;;;;;;;;;;2.50;99.90;;;;;;5090804;28;19927;-75
2023/04/06 05:19:29;;;;;;;;;;;2.50;99.90;;;;;;5091488;28;19920;-75
2023/04/06 05:21:55;;;;;;;;;;;2.50;99.90;;;;;;5109648;28;19919;-75
2023/04/06 05:24:20;;;;;;;;;;;2.50;99.90;;;;;;5109970;28;19926;-75
2023/04/06 05:26:46;;;;;;;;;;;2.40;99.90;;;;;;5110165;28;20298;-75
2023/04/06 05:29:11;;;;;;;;;;;2.40;99.90;;;;;;5109852;28;20403;-75
2023/04/06 05:31:37;;;;;;;;;;;2.40;99.90;;;;;;5090983;28;19924;-75
2023/04/06 05:34:03;;;;;;;;;;;2.50;99.90;;;;;;5109795;28;19924;-75
2023/04/06 05:36:28;;;;;;;;;;;2.40;99.90;;;;;;5091786;28;19920;-75
2023/04/06 05:38:55;;;;;;;;;;;2.50;99.90;;;;;;5091603;28;20010;-75
2023/04/06 05:41:21;;;;;;;;;;;2.50;99.90;;;;;;5109106;28;19923;-75
2023/04/06 05:43:46;;;;;;;;;;;2.50;99.90;;;;;;5109804;28;20266;-73
2023/04/06 05:46:12;;;;;;;;;;;2.50;99.90;;;;;;5110120;28;19934;-73
2023/04/06 05:48:38;;;;;;;;;;;2.60;99.90;;;;;;5106021;28;19946;-74
2023/04/06 05:51:06;;;;;;;;;;;2.60;99.90;;;;;;5112179;28;19919;-73
2023/04/06 05:53:31;;;;;;;;;;;2.60;99.90;;;;;;5108197;28;19985;-73
2023/04/06 05:55:57;;;;;;;;;;;2.70;99.90;;;;;;5128228;27;20393;-73
2023/04/06 05:58:23;;;;;;;;;;;2.80;99.90;;;;;;5099764;28;20297;-73
2023/04/06 06:00:48;;;;;;;;;;;2.80;99.90;;;;;;5095079;28;19943;-74
2023/04/06 06:03:15;;;;;;;;;;;2.90;99.90;;;;;;5108383;28;19930;-74
2023/04/06 06:05:40;;;;;;;;;;;2.90;99.90;;;;;;5125354;28;19920;-74
2023/04/06 06:08:06;;;;;;;;;;;2.90;99.90;;;;;;5091403;28;19924;-74
2023/04/06 06:10:31;;;;;;;;;;;2.90;99.90;;;;;;5090876;28;19981;-74
2023/04/06 06:12:57;;;;;;;;;;;3.00;99.90;;;;;;5108578;28;19923;-74
2023/04/06 06:15:22;;;;;;;;;;;3.00;99.90;;;;;;5090663;28;20464;-74
2023/04/06 06:17:48;;;;;;;;;;;3.10;99.90;;;;;;5109226;28;19965;-74
2023/04/06 06:20:13;;;;;;;;;;;3.10;99.90;;;;;;5091162;28;20011;-74
2023/04/06 06:22:40;;;;;;;;;;;3.20;99.90;;;;;;5089677;28;20010;-74
2023/04/06 06:25:05;;;;;;;;;;;3.20;99.90;;;;;;5108668;28;20006;-74
2023/04/06 06:27:31;;;;;;;;;;;3.30;99.90;;;;;;5108792;28;20006;-74
2023/04/06 06:29:56;;;;;;;;;;;3.30;99.90;;;;;;5093991;28;19929;-74
2023/04/06 06:32:22;;;;;;;;;;;3.40;99.90;;;;;;5093885;28;19930;-74
2023/04/06 06:34:47;;;;;;;;;;;3.40;99.90;;;;;;5093349;28;20326;-74
2023/04/06 06:37:13;;;;;;;;;;;3.50;99.90;;;;;;5112208;28;19928;-74
2023/04/06 06:39:39;;;;;;;;;;;3.50;99.90;;;;;;5076595;28;19920;-74
2023/04/06 06:42:05;;;;;;;;;;;3.60;99.90;;;;;;5111823;28;19931;-74
2023/04/06 06:44:30;;;;;;;;;;;3.70;99.90;;;;;;5111156;28;19927;-74
2023/04/06 06:46:56;;;;;;;;;;;3.70;99.90;;;;;;5093559;28;19919;-74
2023/04/06 06:49:21;;;;;;;;;;;3.80;99.90;;;;;;5077075;28;19986;-74
2023/04/06 06:51:47;;;;;;;;;;;3.80;99.90;;;;;;5094126;28;19924;-74
2023/04/06 06:54:12;;;;;;;;;;;3.90;99.90;;;;;;5111843;28;19923;-74
2023/04/06 06:56:38;;;;;;;;;;;4.00;99.90;;;;;;5093290;28;19919;-74
2023/04/06 06:59:05;;;;;;;;;;;4.00;99.90;;;;;;5127180;27;19972;-74
2023/04/06 07:01:34;;;;;;;;;;;4.00;99.90;;;;;;5076722;28;19924;-74
2023/04/06 07:04:00;;;;;;;;;;;4.10;99.90;;;;;;5093154;28;19939;-73
2023/04/06 07:06:25;;;;;;;;;;;4.20;99.90;;;;;;5093585;28;19928;-73
2023/04/06 07:08:51;;;;;;;;;;;4.20;99.90;;;;;;5093908;28;19930;-73
2023/04/06 07:11:16;;;;;;;;;;;4.20;99.90;;;;;;5111515;28;20006;-73
2023/04/06 07:13:42;;;;;;;;;;;4.30;99.90;;;;;;5112263;28;20056;-74
2023/04/06 07:16:07;;;;;;;;;;;4.30;99.90;;;;;;5112272;28;20024;-73
2023/04/06 07:18:33;;;;;;;;;;;4.40;99.90;;;;;;5077083;28;20557;-74
2023/04/06 07:20:59;;;;;;;;;;;4.40;99.90;;;;;;5112156;28;19920;-74
2023/04/06 07:23:24;;;;;;;;;;;4.40;99.90;;;;;;5093544;28;19919;-73
2023/04/06 07:25:52;;;;;;;;;;;4.50;99.90;;;;;;5110425;28;19924;-74
2023/04/06 07:28:17;;;;;;;;;;;4.50;99.90;;;;;;5092553;28;20605;-73
2023/04/06 07:30:43;;;;;;;;;;;4.50;99.90;;;;;;5093184;28;19926;-73
2023/04/06 07:33:08;;;;;;;;;;;4.60;99.90;;;;;;5111587;28;20379;-73
2023/04/06 07:35:36;;;;;;;;;;;4.70;99.90;;;;;;5092959;28;19927;-74
2023/04/06 07:38:01;;;;;;;;;;;4.70;99.90;;;;;;5093519;28;20397;-73
2023/04/06 07:40:27;;;;;;;;;;;4.80;99.90;;;;;;5064899;28;19966;-74
2023/04/06 07:42:52;;;;;;;;;;;4.90;99.90;;;;;;5111650;28;20324;-73
2023/04/06 07:45:18;;;;;;;;;;;5.00;99.90;;;;;;5111812;28;20416;-73
2023/04/06 07:47:44;;;;;;;;;;;5.00;99.90;;;;;;5127664;27;19920;-74
2023/04/06 07:50:10;;;;;;;;;;;5.00;99.90;;;;;;5111913;28;19919;-74
2023/04/06 07:52:35;;;;;;;;;;;5.10;99.90;;;;;;5110733;28;19919;-74
2023/04/06 07:55:01;;;;;;;;;;;5.20;99.90;;;;;;5111857;28;19920;-74
2023/04/06 07:57:26;;;;;;;;;;;5.30;99.90;;;;;;5110420;28;20424;-73
2023/04/06 07:59:52;;;;;;;;;;;5.30;99.90;;;;;;5091099;28;20503;-73
2023/04/06 08:02:18;;;;;;;;;;;5.40;99.90;;;;;;5111328;28;19969;-73
2023/04/06 08:04:44;;;;;;;;;;;5.50;99.90;;;;;;5107415;28;20401;-74
2023/04/06 08:07:10;;;;;;;;;;;5.60;99.90;;;;;;5111331;28;20308;-74
2023/04/06 08:09:35;;;;;;;;;;;5.60;99.90;;;;;;5111119;28;20261;-73
2023/04/06 08:12:01;;;;;;;;;;;5.70;99.90;;;;;;5075936;28;19920;-74
2023/04/06 08:14:26;;;;;;;;;;;5.80;99.90;;;;;;5111178;28;19920;-73
2023/04/06 08:16:52;;;;;;;;;;;6.00;99.90;;;;;;5111168;28;19923;-73
2023/04/06 08:19:18;;;;;;;;;;;6.10;99.90;;;;;;5111202;28;19924;-73
2023/04/06 08:21:45;;;;;;;;;;;6.20;99.90;;;;;;5092790;28;20377;-74
2023/04/06 08:24:11;;;;;;;;;;;6.30;99.90;;;;;;5111191;28;19998;-74
2023/04/06 08:26:37;;;;;;;;;;;6.40;99.90;;;;;;5093109;28;19978;-73
2023/04/06 08:29:03;;;;;;;;;;;6.50;99.90;;;;;;5111177;28;20334;-74
2023/04/06 08:31:30;;;;;;;;;;;6.60;99.90;;;;;;5111117;28;19920;-74
2023/04/06 08:33:55;;;;;;;;;;;6.70;99.90;;;;;;5110012;28;19971;-74
2023/04/06 08:36:22;;;;;;;;;;;6.90;99.90;;;;;;5110892;28;19970;-74
2023/04/06 08:38:48;;;;;;;;;;;6.90;99.90;;;;;;5126038;27;19924;-74
2023/04/06 08:41:16;;;;;;;;;;;7.00;99.90;;;;;;5110741;28;20385;-73
2023/04/06 08:43:45;;;;;;;;;;;7.20;99.90;;;;;;5092054;28;19944;-74
2023/04/06 08:46:11;;;;;;;;;;;7.30;99.90;;;;;;5092409;28;19919;-73
2023/04/06 08:48:38;;;;;;;;;;;7.40;99.90;;;;;;5110383;28;20377;-74
2023/04/06 08:51:03;;;;;;;;;;;7.50;99.90;;;;;;5110162;28;19920;-73
2023/04/06 08:53:29;;;;;;;;;;;7.60;99.90;;;;;;5110587;28;19920;-73
2023/04/06 08:55:56;;;;;;;;;;;7.70;99.90;;;;;;5110468;28;19923;-74
2023/04/06 08:58:22;;;;;;;;;;;7.80;99.90;;;;;;5110100;28;20260;-74
2023/04/06 09:00:48;;;;;;;;;;;8.00;99.90;;;;;;5110204;28;20031;-74
2023/04/06 09:03:14;;;;;;;;;;;8.10;99.90;;;;;;5091906;28;19919;-74
2023/04/06 09:05:40;;;;;;;;;;;8.20;99.90;;;;;;5109844;28;19980;-73
2023/04/06 09:08:06;;;;;;;;;;;8.30;99.90;;;;;;5110308;28;19920;-74
2023/04/06 09:10:32;;;;;;;;;;;8.40;99.90;;;;;;5091800;28;19968;-73
2023/04/06 09:13:07;;;;;;;;;;;8.50;99.90;;;;;;5110519;28;19919;-74
2023/04/06 09:15:33;;;;;;;;;;;8.70;99.90;;;;;;5110139;28;19920;-73
2023/04/06 09:17:58;;;;;;;;;;;8.70;99.90;;;;;;5091824;28;20449;-74
2023/04/06 09:20:28;;;;;;;;;;;8.90;99.90;;;;;;5109570;28;19926;-74
2023/04/06 09:22:54;;;;;;;;;;;9.10;99.90;;;;;;5110127;28;20289;-74
2023/04/06 09:25:20;;;;;;;;;;;9.70;99.90;;;;;;5109852;28;20007;-74
2023/04/06 09:27:46;;;;;;;;;;;10.50;99.90;;;;;;5100271;28;20373;-74
2023/04/06 09:30:13;;;;;;;;;;;11.10;99.90;;;;;;5125458;27;19920;-74
2023/04/06 09:32:46;;;;;;;;;;;11.80;98.50;;;;;;5082512;28;19920;-74
2023/04/06 09:35:12;;;;;;;;;;;12.20;96.90;;;;;;5074947;28;19930;-74
2023/04/06 09:37:38;;;;;;;;;;;12.60;95.20;;;;;;5109989;28;20588;-73
2023/04/06 09:40:05;;;;;;;;;;;13.00;96.30;;;;;;5109395;28;19927;-74
2023/04/06 09:42:30;;;;;;;;;;;13.30;92.60;;;;;;5109412;28;19920;-74
2023/04/06 09:44:56;;;;;;;;;;;13.60;92.50;;;;;;5109497;28;20059;-74
2023/04/06 09:47:23;;;;;;;;;;;14.00;91.10;;;;;;5110156;28;19923;-74
2023/04/06 09:49:50;;;;;;;;;;;14.30;86.80;;;;;;5109975;28;19981;-74
2023/04/06 09:52:16;;;;;;;;;;;14.70;81.80;;;;;;5091587;28;19919;-74
2023/04/06 09:54:43;;;;;;;;;;;14.90;80.40;;;;;;5091459;28;19927;-74
2023/04/06 09:57:18;;;;;;;;;;;15.00;75.40;;;;;;5091309;28;20396;-74
2023/04/06 09:59:47;;;;;;;;;;;15.20;77.20;;;;;;5084824;28;19919;-75
2023/04/06 10:02:18;;;;;;;;;;;15.30;73.40;;;;;;5122119;27;19931;-74
2023/04/06 10:04:49;;;;;;;;;;;15.60;68.10;;;;;;5091973;28;19927;-74
2023/04/06 10:07:16;;;;;;;;;;;15.60;68.30;;;;;;5093724;28;19920;-74
2023/04/06 10:09:44;;;;;;;;;;;15.80;67.70;;;;;;5093216;28;20304;-74
2023/04/06 10:12:09;;;;;;;;;;;16.00;67.30;;;;;;5093383;28;19920;-74
2023/04/06 10:14:38;;;;;;;;;;;16.20;66.10;;;;;;5093276;28;19920;-74
2023/04/06 10:17:04;;;;;;;;;;;16.10;62.00;;;;;;5093124;28;19920;-74
2023/04/06 10:19:39;;;;;;;;;;;16.00;62.00;;;;;;5092986;28;19920;-74
2023/04/06 10:22:05;;;;;;;;;;;15.60;61.70;;;;;;5092947;28;20404;-73
2023/04/06 10:24:30;;;;;;;;;;;15.20;63.20;;;;;;5092636;28;19920;-73
2023/04/06 10:27:02;;;;;;;;;;;14.80;65.30;;;;;;5091705;28;19927;-73
2023/04/06 10:29:28;;;;;;;;;;;14.30;62.70;;;;;;5085157;28;19920;-73
2023/04/06 10:31:55;;;;;;;;;;;13.90;64.70;;;;;;5092410;28;19920;-73
2023/04/06 10:34:20;;;;;;;;;;;13.70;66.10;;;;;;5091640;28;19927;-73
2023/04/06 10:36:46;;;;;;;;;;;13.50;66.40;;;;;;5074304;28;20317;-73
2023/04/06 10:39:11;;;;;;;;;;;13.30;68.80;;;;;;5092808;28;19986;-75
2023/04/06 10:41:45;;;;;;;;;;;13.20;66.50;;;;;;5090810;28;20362;-75
2023/04/06 10:44:17;;;;;;;;;;;13.10;67.60;;;;;;5092599;28;20073;-75
2023/04/06 10:46:52;;;;;;;;;;;13.00;67.10;;;;;;5092127;28;20278;-75
2023/04/06 10:49:17;;;;;;;;;;;13.00;66.90;;;;;;5108338;28;20588;-75
2023/04/06 10:51:43;;;;;;;;;;;13.00;69.10;;;;;;5090984;28;19920;-75
2023/04/06 10:54:09;;;;;;;;;;;13.10;67.30;;;;;;5092555;28;19923;-76
2023/04/06 10:56:36;;;;;;;;;;;13.10;69.30;;;;;;5092765;28;19927;-76
2023/04/06 10:59:02;;;;;;;;;;;13.20;70.10;;;;;;5099162;28;19927;-75
2023/04/06 11:01:28;;;;;;;;;;;13.30;69.30;;;;;;5111223;28;19972;-75
2023/04/06 11:03:55;;;;;;;;;;;13.40;70.80;;;;;;5111787;28;20327;-75
2023/04/06 11:06:25;;;;;;;;;;;13.50;69.40;;;;;;5111686;28;20293;-75
2023/04/06 11:08:51;;;;;;;;;;;13.60;70.10;;;;;;5111493;28;19924;-75
2023/04/06 11:11:18;;;;;;;;;;;13.60;69.10;;;;;;5111450;28;19919;-75
2023/04/06 11:13:50;;;;;;;;;;;13.60;68.20;;;;;;5092489;28;19920;-75
2023/04/06 11:16:20;;;;;;;;;;;13.50;67.90;;;;;;5111643;28;19920;-75
2023/04/06 11:18:56;;;;;;;;;;;13.50;67.80;;;;;;5075759;28;20030;-76
2023/04/06 11:21:39;;;;;;;;;;;13.50;68.10;;;;;;5104203;28;19943;-75
2023/04/06 11:24:05;;;;;;;;;;;13.40;69.20;;;;;;5107874;28;19942;-75
2023/04/06 11:26:30;;;;;;;;;;;13.40;69.50;;;;;;5110957;28;19919;-75
2023/04/06 11:28:56;;;;;;;;;;;13.40;68.70;;;;;;5092963;28;19926;-75
2023/04/06 11:31:25;;;;;;;;;;;13.50;71.30;;;;;;5111329;28;20014;-75
2023/04/06 11:33:56;;;;;;;;;;;13.50;71.00;;;;;;5111783;28;20389;-75
2023/04/06 11:36:21;;;;;;;;;;;13.50;71.60;;;;;;5112324;28;19927;-75
2023/04/06 11:38:47;;;;;;;;;;;13.60;70.70;;;;;;5112317;28;19919;-75
2023/04/06 11:41:12;;;;;;;;;;;13.70;70.30;;;;;;5111961;28;19934;-76
2023/04/06 11:43:38;;;;;;;;;;;13.70;71.90;;;;;;5111473;28;19974;-75
2023/04/06 11:46:04;;;;;;;;;;;13.80;71.00;;;;;;5093696;28;19920;-75
2023/04/06 11:48:29;;;;;;;;;;;13.90;70.20;;;;;;5127714;27;19920;-75
2023/04/06 11:51:00;;;;;;;;;;;14.00;70.90;;;;;;5093154;28;19984;-75
2023/04/06 11:53:27;;;;;;;;;;;14.10;70.60;;;;;;5111933;28;19941;-75
2023/04/06 11:55:52;;;;;;;;;;;14.40;69.20;;;;;;5111590;28;19931;-75
2023/04/06 11:58:18;;;;;;;;;;;14.60;68.20;;;;;;5093470;28;19930;-75
2023/04/06 12:00:45;;;;;;;;;;;14.80;68.70;;;;;;5111718;28;19978;-75
2023/04/06 12:03:13;;;;;;;;;;;15.00;65.30;;;;;;5093220;28;19920;-76
2023/04/06 12:05:39;;;;;;;;;;;15.10;67.60;;;;;;5111635;28;19990;-75
2023/04/06 12:08:05;;;;;;;;;;;15.10;65.70;;;;;;5111084;28;20014;-75
2023/04/06 12:10:30;;;;;;;;;;;15.10;65.90;;;;;;5111258;28;19965;-75
2023/04/06 12:12:56;;;;;;;;;;;15.10;65.70;;;;;;5093046;28;19930;-75
2023/04/06 12:15:21;;;;;;;;;;;15.10;64.30;;;;;;5093250;28;19919;-75
2023/04/06 12:17:47;;;;;;;;;;;15.10;67.20;;;;;;5092981;28;20373;-75
2023/04/06 12:20:13;;;;;;;;;;;15.20;67.50;;;;;;5110937;28;19928;-73
2023/04/06 12:22:39;;;;;;;;;;;15.30;65.10;;;;;;5093259;28;20014;-76
2023/04/06 12:25:06;;;;;;;;;;;15.50;65.20;;;;;;5092355;28;21383;-75
2023/04/06 12:27:32;;;;;;;;;;;15.90;64.70;;;;;;5092896;28;19958;-75
2023/04/06 12:29:57;;;;;;;;;;;16.20;66.10;;;;;;5092350;28;19954;-73
2023/04/06 12:32:23;;;;;;;;;;;16.50;63.80;;;;;;5111006;28;19923;-74
2023/04/06 12:34:49;;;;;;;;;;;16.70;61.90;;;;;;5110878;28;19920;-74
2023/04/06 12:37:15;;;;;;;;;;;16.80;64.00;;;;;;5092367;28;19926;-75
2023/04/06 12:39:40;;;;;;;;;;;16.80;62.10;;;;;;5092121;28;19919;-74
2023/04/06 12:42:06;;;;;;;;;;;16.90;60.40;;;;;;5092333;28;20331;-75
2023/04/06 12:44:32;;;;;;;;;;;16.80;61.90;;;;;;5111014;28;19977;-76
2023/04/06 12:46:57;;;;;;;;;;;16.80;60.10;;;;;;5099137;28;19947;-76
2023/04/06 12:49:23;;;;;;;;;;;16.70;59.30;;;;;;5110693;28;20011;-76
2023/04/06 12:51:48;;;;;;;;;;;16.70;59.50;;;;;;5092219;28;19926;-76
2023/04/06 12:54:14;;;;;;;;;;;16.70;58.80;;;;;;5110745;28;19920;-75
2023/04/06 12:56:39;;;;;;;;;;;16.70;59.00;;;;;;5110395;28;19923;-75
2023/04/06 12:59:05;;;;;;;;;;;16.80;58.60;;;;;;5110735;28;19920;-75
2023/04/06 13:01:30;;;;;;;;;;;16.90;58.80;;;;;;5110328;28;20454;-76
2023/04/06 13:03:58;;;;;;;;;;;16.70;58.30;;;;;;5092196;28;19993;-75
2023/04/06 13:06:27;;;;;;;;;;;16.50;58.40;;;;;;5110625;28;19919;-75
2023/04/06 13:08:53;;;;;;;;;;;16.20;58.90;;;;;;5110065;28;20476;-75
2023/04/06 13:11:20;;;;;;;;;;;16.00;57.30;;;;;;5110538;28;19923;-75
2023/04/06 13:13:45;;;;;;;;;;;15.90;58.80;;;;;;5110036;28;19942;-75
2023/04/06 13:16:11;;;;;;;;;;;15.80;58.10;;;;;;5092241;28;19920;-73
2023/04/06 13:18:38;;;;;;;;;;;15.70;60.10;;;;;;5109786;28;19919;-75
2023/04/06 13:21:07;;;;;;;;;;;15.70;61.30;;;;;;5099108;28;19920;-75
2023/04/06 13:23:32;;;;;;;;;;;15.70;60.00;;;;;;5091619;28;20027;-75
2023/04/06 13:26:00;;;;;;;;;;;15.80;60.80;;;;;;5109835;28;20006;-75
2023/04/06 13:28:26;;;;;;;;;;;15.80;60.20;;;;;;5109509;28;19931;-75
2023/04/06 13:30:51;;;;;;;;;;;15.90;59.70;;;;;;5110581;28;19923;-75
2023/04/06 13:33:17;;;;;;;;;;;15.90;59.60;;;;;;5091414;28;19975;-75
2023/04/06 13:35:46;;;;;;;;;;;15.90;61.30;;;;;;5091758;28;20351;-75
2023/04/06 13:38:11;;;;;;;;;;;16.00;60.80;;;;;;5073989;28;20369;-75
2023/04/06 13:40:40;;;;;;;;;;;16.00;61.50;;;;;;5110164;28;19920;-75
2023/04/06 13:43:06;;;;;;;;;;;16.00;61.00;;;;;;5109404;28;19920;-75
2023/04/06 13:45:31;;;;;;;;;;;16.00;58.80;;;;;;5110212;28;19927;-75
2023/04/06 13:47:57;;;;;;;;;;;15.90;61.60;;;;;;5109952;28;19924;-76
2023/04/06 13:50:22;;;;;;;;;;;15.80;60.60;;;;;;5110246;28;19953;-75
2023/04/06 13:52:49;;;;;;;;;;;15.80;60.20;;;;;;5091351;28;19920;-75
2023/04/06 13:55:15;;;;;;;;;;;15.70;60.90;;;;;;5074429;28;20412;-75
2023/04/06 13:57:41;;;;;;;;;;;15.60;61.70;;;;;;5109885;28;19920;-75
2023/04/06 14:00:06;;;;;;;;;;;15.60;62.30;;;;;;5097364;28;19919;-75
2023/04/06 14:02:32;;;;;;;;;;;15.60;62.30;;;;;;5108999;28;19924;-75
2023/04/06 14:04:58;;;;;;;;;;;15.70;61.40;;;;;;5109335;28;19987;-75
2023/04/06 14:07:23;;;;;;;;;;;15.60;61.30;;;;;;5109717;28;19920;-76
2023/04/06 14:09:49;;;;;;;;;;;15.50;61.80;;;;;;5109652;28;19924;-72
2023/04/06 14:12:15;;;;;;;;;;;15.40;62.40;;;;;;5109343;28;20339;-75
2023/04/06 14:14:40;;;;;;;;;;;15.30;60.20;;;;;;5109465;28;19967;-75
2023/04/06 14:17:06;;;;;;;;;;;15.20;61.60;;;;;;5109353;28;19920;-75
2023/04/06 14:19:31;;;;;;;;;;;15.10;62.30;;;;;;5110100;28;20359;-75